createdAt,value
2019-03-23T00:27:26.161Z,9.57
2019-03-23T00:27:26.724Z,9.58
2019-03-23T00:27:27.325Z,9.68
2019-03-23T00:27:27.925Z,9.61
2019-03-23T00:27:28.523Z,9.71
2019-03-23T00:27:29.123Z,9.63
2019-03-23T00:27:29.725Z,9.61
2019-03-23T00:27:30.324Z,9.71
2019-03-23T00:28:23.807Z,9.56
2019-03-23T00:28:24.378Z,9.64
2019-03-23T00:28:24.977Z,9.64
2019-03-23T00:28:25.577Z,9.60
2019-03-23T00:28:26.176Z,9.61
2019-03-23T00:28:26.775Z,9.63
2019-03-23T00:28:27.375Z,9.68
2019-03-23T00:28:27.975Z,9.63
2019-03-23T00:29:21.433Z,9.60
2019-03-23T00:29:22.030Z,9.66
2019-03-23T00:29:22.632Z,9.64
2019-03-23T00:29:23.229Z,9.63
2019-03-23T00:29:23.830Z,9.56
2019-03-23T00:29:24.429Z,9.61
2019-03-23T00:29:25.028Z,9.61
2019-03-23T00:29:25.629Z,9.63
2019-03-23T00:30:20.109Z,9.60
2019-03-23T00:30:20.704Z,9.58
2019-03-23T00:30:21.303Z,9.58
2019-03-23T00:30:21.908Z,9.56
2019-03-23T00:30:22.502Z,9.60
2019-03-23T00:30:23.102Z,9.58
2019-03-23T00:30:23.703Z,9.63
2019-03-23T00:30:24.301Z,9.57
2019-03-23T00:31:17.761Z,9.53
2019-03-23T00:31:18.359Z,9.63
2019-03-23T00:31:18.958Z,9.60
2019-03-23T00:31:19.557Z,9.58
2019-03-23T00:31:20.157Z,9.64
2019-03-23T00:31:20.759Z,9.53
2019-03-23T00:31:21.358Z,9.64
2019-03-23T00:31:21.957Z,9.56
2019-03-23T00:32:16.437Z,9.56
2019-03-23T00:32:17.033Z,9.61
2019-03-23T00:32:17.633Z,9.58
2019-03-23T00:32:18.233Z,9.57
2019-03-23T00:32:18.835Z,9.61
2019-03-23T00:32:19.433Z,9.60
2019-03-23T00:32:20.032Z,9.63
2019-03-23T00:32:20.634Z,9.60
2019-03-23T00:33:15.139Z,9.60
2019-03-23T00:33:15.709Z,9.60
2019-03-23T00:33:16.310Z,9.63
2019-03-23T00:33:16.909Z,9.67
2019-03-23T00:33:17.509Z,9.60
2019-03-23T00:33:18.109Z,9.60
2019-03-23T00:33:18.709Z,9.58
2019-03-23T00:33:19.309Z,9.58
2019-03-23T00:34:13.790Z,9.56
2019-03-23T00:34:14.385Z,9.61
2019-03-23T00:34:14.985Z,9.50
2019-03-23T00:34:15.586Z,9.57
2019-03-23T00:34:16.185Z,9.57
2019-03-23T00:34:16.784Z,9.53
2019-03-23T00:34:17.392Z,9.60
2019-03-23T00:34:17.985Z,9.64
2019-03-23T00:35:12.465Z,9.52
2019-03-23T00:35:13.061Z,9.52
2019-03-23T00:35:13.661Z,9.64
2019-03-23T00:35:14.261Z,9.52
2019-03-23T00:35:14.861Z,9.60
2019-03-23T00:35:15.461Z,9.52
2019-03-23T00:35:16.061Z,9.66
2019-03-23T00:35:16.660Z,9.48
2019-03-23T00:36:11.142Z,9.52
2019-03-23T00:36:11.742Z,9.56
2019-03-23T00:36:12.337Z,9.49
2019-03-23T00:36:12.993Z,9.56
2019-03-23T00:36:13.536Z,9.56
2019-03-23T00:36:14.134Z,9.52
2019-03-23T00:36:14.734Z,9.48
2019-03-23T00:36:15.339Z,9.53
2019-03-23T00:37:09.817Z,9.49
2019-03-23T00:37:10.414Z,9.53
2019-03-23T00:37:11.013Z,9.56
2019-03-23T00:37:11.613Z,9.50
2019-03-23T00:37:12.212Z,9.53
2019-03-23T00:37:12.813Z,9.53
2019-03-23T00:37:13.413Z,9.50
2019-03-23T00:37:14.011Z,9.57
2019-03-23T00:38:08.576Z,9.53
2019-03-23T00:38:09.090Z,9.57
2019-03-23T00:38:09.692Z,9.53
2019-03-23T00:38:10.289Z,9.53
2019-03-23T00:38:10.890Z,9.58
2019-03-23T00:38:11.488Z,9.53
2019-03-23T00:38:12.089Z,9.52
2019-03-23T00:38:12.689Z,9.50
2019-03-23T00:39:07.169Z,9.52
2019-03-23T00:39:07.764Z,9.50
2019-03-23T00:39:08.367Z,9.63
2019-03-23T00:39:08.964Z,9.49
2019-03-23T00:39:09.563Z,9.50
2019-03-23T00:39:10.165Z,9.56
2019-03-23T00:39:10.764Z,9.52
2019-03-23T00:39:11.364Z,9.50
2019-03-23T00:40:05.845Z,9.52
2019-03-23T00:40:06.443Z,9.50
2019-03-23T00:40:07.042Z,9.52
2019-03-23T00:40:07.640Z,9.52
2019-03-23T00:40:08.243Z,9.64
2019-03-23T00:40:08.841Z,9.46
2019-03-23T00:40:09.440Z,9.63
2019-03-23T00:40:10.043Z,9.57
2019-03-23T00:41:04.520Z,9.52
2019-03-23T00:41:05.120Z,9.42
2019-03-23T00:41:05.717Z,9.53
2019-03-23T00:41:06.319Z,9.53
2019-03-23T00:41:06.917Z,9.57
2019-03-23T00:41:07.520Z,9.49
2019-03-23T00:41:08.118Z,9.49
2019-03-23T00:41:08.719Z,9.60
2019-03-23T00:42:02.175Z,9.56
2019-03-23T00:42:02.769Z,9.56
2019-03-23T00:42:03.368Z,9.58
2019-03-23T00:42:03.969Z,9.50
2019-03-23T00:42:04.570Z,9.56
2019-03-23T00:42:05.168Z,9.58
2019-03-23T00:42:05.768Z,9.60
2019-03-23T00:42:06.368Z,9.60
2019-03-23T00:43:00.848Z,9.53
2019-03-23T00:43:01.448Z,9.63
2019-03-23T00:43:02.046Z,9.57
2019-03-23T00:43:02.644Z,9.52
2019-03-23T00:43:03.252Z,9.46
2019-03-23T00:43:03.850Z,9.48
2019-03-23T00:43:04.447Z,9.52
2019-03-23T00:43:05.044Z,9.63
2019-03-23T00:43:59.547Z,9.42
2019-03-23T00:44:00.121Z,9.45
2019-03-23T00:44:00.719Z,9.46
2019-03-23T00:44:01.321Z,9.50
2019-03-23T00:44:01.922Z,9.52
2019-03-23T00:44:02.521Z,9.45
2019-03-23T00:44:03.118Z,9.43
2019-03-23T00:44:03.720Z,9.43
2019-03-23T00:44:57.175Z,9.38
2019-03-23T00:44:57.774Z,9.32
2019-03-23T00:44:58.375Z,9.39
2019-03-23T00:44:58.972Z,9.48
2019-03-23T00:44:59.573Z,9.45
2019-03-23T00:45:00.337Z,9.35
2019-03-23T00:45:00.772Z,9.40
2019-03-23T00:45:01.377Z,9.42
2019-03-23T00:45:54.829Z,9.39
2019-03-23T00:45:55.425Z,9.30
2019-03-23T00:45:56.025Z,9.38
2019-03-23T00:45:56.625Z,9.28
2019-03-23T00:45:57.225Z,9.28
2019-03-23T00:45:57.824Z,9.43
2019-03-23T00:45:58.424Z,9.31
2019-03-23T00:45:59.027Z,9.42
2019-03-23T00:46:53.506Z,9.27
2019-03-23T00:46:54.101Z,9.32
2019-03-23T00:46:54.701Z,9.25
2019-03-23T00:46:55.301Z,9.30
2019-03-23T00:46:55.903Z,9.24
2019-03-23T00:46:56.500Z,9.35
2019-03-23T00:46:57.101Z,9.24
2019-03-23T00:46:57.700Z,9.31
2019-03-23T00:47:52.177Z,9.23
2019-03-23T00:47:52.776Z,9.24
2019-03-23T00:47:53.375Z,9.27
2019-03-23T00:47:53.974Z,9.24
2019-03-23T00:47:54.576Z,9.20
2019-03-23T00:47:55.177Z,9.24
2019-03-23T00:47:55.774Z,9.21
2019-03-23T00:47:56.374Z,9.13
2019-03-23T00:48:50.877Z,9.10
2019-03-23T00:48:51.452Z,9.10
2019-03-23T00:48:52.052Z,9.10
2019-03-23T00:48:52.652Z,9.10
2019-03-23T00:48:53.252Z,9.09
2019-03-23T00:48:53.850Z,9.13
2019-03-23T00:48:54.453Z,9.09
2019-03-23T00:48:55.049Z,9.09
2019-03-23T00:49:48.506Z,8.96
2019-03-23T00:49:49.105Z,9.01
2019-03-23T00:49:49.703Z,8.97
2019-03-23T00:49:50.304Z,8.96
2019-03-23T00:49:50.903Z,8.94
2019-03-23T00:49:51.503Z,8.96
2019-03-23T00:49:52.102Z,8.99
2019-03-23T00:49:52.704Z,8.94
2019-03-23T00:50:46.158Z,8.90
2019-03-23T00:50:46.758Z,8.87
2019-03-23T00:50:47.356Z,8.91
2019-03-23T00:50:47.956Z,8.91
2019-03-23T00:50:48.556Z,8.91
2019-03-23T00:50:49.156Z,8.96
2019-03-23T00:50:49.757Z,8.90
2019-03-23T00:50:50.357Z,8.94
2019-03-23T00:51:44.835Z,8.81
2019-03-23T00:51:45.432Z,8.87
2019-03-23T00:51:46.033Z,8.86
2019-03-23T00:51:46.629Z,8.90
2019-03-23T00:51:47.232Z,8.87
2019-03-23T00:51:47.829Z,8.87
2019-03-23T00:51:48.430Z,8.86
2019-03-23T00:51:49.031Z,8.87
2019-03-23T00:52:42.488Z,8.76
2019-03-23T00:52:43.083Z,8.79
2019-03-23T00:52:43.683Z,8.81
2019-03-23T00:52:44.281Z,8.78
2019-03-23T00:52:44.884Z,8.78
2019-03-23T00:52:45.482Z,8.81
2019-03-23T00:52:46.113Z,8.81
2019-03-23T00:52:46.682Z,8.76
2019-03-23T00:53:40.171Z,8.66
2019-03-23T00:53:40.733Z,8.76
2019-03-23T00:53:41.334Z,8.69
2019-03-23T00:53:41.935Z,8.68
2019-03-23T00:53:42.534Z,8.76
2019-03-23T00:53:43.135Z,8.72
2019-03-23T00:53:43.734Z,8.66
2019-03-23T00:53:44.336Z,8.71
2019-03-23T00:54:38.815Z,8.71
2019-03-23T00:54:39.410Z,8.69
2019-03-23T00:54:40.010Z,8.69
2019-03-23T00:54:40.609Z,8.68
2019-03-23T00:54:41.211Z,8.69
2019-03-23T00:54:41.812Z,8.69
2019-03-23T00:54:42.410Z,8.79
2019-03-23T00:54:43.008Z,8.66
2019-03-23T00:55:36.468Z,8.65
2019-03-23T00:55:37.062Z,8.73
2019-03-23T00:55:37.661Z,8.69
2019-03-23T00:55:38.260Z,8.71
2019-03-23T00:55:38.861Z,8.75
2019-03-23T00:55:39.462Z,8.75
2019-03-23T00:55:40.059Z,8.62
2019-03-23T00:55:40.661Z,8.66
2019-03-23T00:56:34.116Z,8.65
2019-03-23T00:56:34.712Z,8.68
2019-03-23T00:56:35.317Z,8.63
2019-03-23T00:56:35.915Z,8.65
2019-03-23T00:56:36.514Z,8.66
2019-03-23T00:56:37.114Z,8.68
2019-03-23T00:56:37.712Z,8.68
2019-03-23T00:56:38.313Z,8.69
2019-03-23T00:57:32.792Z,8.60
2019-03-23T00:57:33.390Z,8.65
2019-03-23T00:57:33.988Z,8.71
2019-03-23T00:57:34.588Z,8.65
2019-03-23T00:57:35.189Z,8.68
2019-03-23T00:57:35.789Z,8.71
2019-03-23T00:57:36.390Z,8.66
2019-03-23T00:57:36.988Z,8.58
2019-03-23T00:58:31.467Z,8.66
2019-03-23T00:58:32.064Z,8.57
2019-03-23T00:58:32.679Z,8.68
2019-03-23T00:58:33.264Z,8.62
2019-03-23T00:58:33.866Z,8.69
2019-03-23T00:58:34.462Z,8.62
2019-03-23T00:58:35.064Z,8.63
2019-03-23T00:58:35.662Z,8.63
2019-03-23T00:59:29.147Z,8.54
2019-03-23T00:59:29.718Z,8.57
2019-03-23T00:59:30.316Z,8.55
2019-03-23T00:59:30.916Z,8.63
2019-03-23T00:59:31.515Z,8.63
2019-03-23T00:59:32.116Z,8.65
2019-03-23T00:59:32.715Z,8.55
2019-03-23T00:59:33.315Z,8.58
2019-03-23T01:00:26.783Z,8.54
2019-03-23T01:00:27.370Z,8.55
2019-03-23T01:00:27.968Z,8.63
2019-03-23T01:00:28.568Z,8.58
2019-03-23T01:00:29.168Z,8.58
2019-03-23T01:00:29.769Z,8.60
2019-03-23T01:00:30.367Z,8.63
2019-03-23T01:00:30.966Z,8.60
2019-03-23T01:01:25.447Z,8.60
2019-03-23T01:01:26.043Z,8.57
2019-03-23T01:01:26.644Z,8.63
2019-03-23T01:01:27.243Z,8.57
2019-03-23T01:01:27.849Z,8.55
2019-03-23T01:01:28.441Z,8.62
2019-03-23T01:01:29.042Z,8.58
2019-03-23T01:01:29.642Z,8.68
2019-03-23T01:02:24.123Z,8.50
2019-03-23T01:02:24.726Z,8.60
2019-03-23T01:02:25.319Z,8.60
2019-03-23T01:02:25.919Z,8.66
2019-03-23T01:02:26.519Z,8.54
2019-03-23T01:02:27.123Z,8.63
2019-03-23T01:02:27.719Z,8.60
2019-03-23T01:02:28.319Z,8.57
2019-03-23T01:03:21.777Z,8.45
2019-03-23T01:03:22.372Z,8.60
2019-03-23T01:03:22.975Z,8.57
2019-03-23T01:03:23.572Z,8.57
2019-03-23T01:03:24.172Z,8.54
2019-03-23T01:03:24.772Z,8.55
2019-03-23T01:03:25.370Z,8.54
2019-03-23T01:03:25.973Z,8.57
2019-03-23T01:04:19.453Z,8.47
2019-03-23T01:04:20.024Z,8.51
2019-03-23T01:04:20.624Z,8.55
2019-03-23T01:04:21.224Z,8.51
2019-03-23T01:04:21.823Z,8.53
2019-03-23T01:04:22.423Z,8.48
2019-03-23T01:04:23.025Z,8.53
2019-03-23T01:04:23.626Z,8.57
2019-03-23T01:05:17.082Z,8.50
2019-03-23T01:05:17.673Z,8.48
2019-03-23T01:05:18.275Z,8.54
2019-03-23T01:05:18.874Z,8.55
2019-03-23T01:05:19.473Z,8.50
2019-03-23T01:05:20.075Z,8.48
2019-03-23T01:05:20.675Z,8.54
2019-03-23T01:05:21.273Z,8.53
2019-03-23T01:06:15.754Z,8.53
2019-03-23T01:06:16.350Z,8.51
2019-03-23T01:06:16.951Z,8.45
2019-03-23T01:06:17.558Z,8.50
2019-03-23T01:06:18.150Z,8.53
2019-03-23T01:06:18.750Z,8.50
2019-03-23T01:06:19.350Z,8.54
2019-03-23T01:06:19.949Z,8.53
2019-03-23T01:07:13.406Z,8.53
2019-03-23T01:07:14.002Z,8.54
2019-03-23T01:07:14.607Z,8.54
2019-03-23T01:07:15.203Z,8.48
2019-03-23T01:07:15.801Z,8.54
2019-03-23T01:07:16.403Z,8.54
2019-03-23T01:07:17.002Z,8.54
2019-03-23T01:07:17.604Z,8.54
2019-03-23T01:08:11.058Z,8.48
2019-03-23T01:08:11.653Z,8.57
2019-03-23T01:08:12.255Z,8.60
2019-03-23T01:08:12.853Z,8.62
2019-03-23T01:08:13.458Z,8.58
2019-03-23T01:08:14.054Z,8.58
2019-03-23T01:08:14.654Z,8.60
2019-03-23T01:08:15.252Z,8.53
2019-03-23T01:09:08.744Z,8.45
2019-03-23T01:09:09.307Z,8.48
2019-03-23T01:09:09.906Z,8.45
2019-03-23T01:09:10.506Z,8.44
2019-03-23T01:09:11.105Z,8.44
2019-03-23T01:09:11.709Z,8.48
2019-03-23T01:09:12.306Z,8.48
2019-03-23T01:09:12.906Z,8.47
2019-03-23T01:10:07.384Z,8.37
2019-03-23T01:10:07.980Z,8.35
2019-03-23T01:10:08.580Z,8.42
2019-03-23T01:10:09.183Z,8.39
2019-03-23T01:10:09.781Z,8.40
2019-03-23T01:10:10.382Z,8.37
2019-03-23T01:10:10.983Z,8.42
2019-03-23T01:10:11.580Z,8.44
2019-03-23T01:11:06.061Z,8.33
2019-03-23T01:11:06.657Z,8.37
2019-03-23T01:11:07.256Z,8.47
2019-03-23T01:11:07.857Z,8.39
2019-03-23T01:11:08.456Z,8.40
2019-03-23T01:11:09.056Z,8.36
2019-03-23T01:11:09.657Z,8.40
2019-03-23T01:11:10.255Z,8.36
2019-03-23T01:12:03.712Z,8.32
2019-03-23T01:12:04.310Z,8.44
2019-03-23T01:12:04.908Z,8.36
2019-03-23T01:12:05.509Z,8.40
2019-03-23T01:12:06.112Z,8.39
2019-03-23T01:12:06.710Z,8.40
2019-03-23T01:12:07.308Z,8.37
2019-03-23T01:12:07.910Z,8.36
2019-03-23T01:13:02.388Z,8.39
2019-03-23T01:13:02.985Z,8.36
2019-03-23T01:13:03.584Z,8.33
2019-03-23T01:13:04.188Z,8.35
2019-03-23T01:13:04.785Z,8.36
2019-03-23T01:13:05.385Z,8.36
2019-03-23T01:13:05.984Z,8.39
2019-03-23T01:13:06.583Z,8.44
2019-03-23T01:14:00.045Z,8.37
2019-03-23T01:14:00.638Z,8.36
2019-03-23T01:14:01.238Z,8.40
2019-03-23T01:14:01.837Z,8.37
2019-03-23T01:14:02.438Z,8.33
2019-03-23T01:14:03.038Z,8.42
2019-03-23T01:14:03.635Z,8.32
2019-03-23T01:14:04.235Z,8.32
2019-03-23T01:14:58.747Z,8.30
2019-03-23T01:14:59.319Z,8.40
2019-03-23T01:14:59.910Z,8.35
2019-03-23T01:15:00.511Z,8.36
2019-03-23T01:15:01.167Z,8.35
2019-03-23T01:15:01.716Z,8.44
2019-03-23T01:15:02.312Z,8.36
2019-03-23T01:15:02.910Z,8.36
2019-03-23T01:15:56.368Z,8.45
2019-03-23T01:15:56.964Z,8.42
2019-03-23T01:15:57.565Z,8.35
2019-03-23T01:15:58.163Z,8.37
2019-03-23T01:15:58.764Z,8.36
2019-03-23T01:15:59.373Z,8.47
2019-03-23T01:15:59.965Z,8.42
2019-03-23T01:16:00.563Z,8.39
2019-03-23T01:16:55.042Z,8.44
2019-03-23T01:16:55.639Z,8.40
2019-03-23T01:16:56.239Z,8.44
2019-03-23T01:16:56.842Z,8.37
2019-03-23T01:16:57.439Z,8.47
2019-03-23T01:16:58.039Z,8.39
2019-03-23T01:16:58.637Z,8.44
2019-03-23T01:16:59.241Z,8.37
2019-03-23T01:17:53.718Z,8.39
2019-03-23T01:17:54.314Z,8.50
2019-03-23T01:17:54.920Z,8.44
2019-03-23T01:17:55.516Z,8.39
2019-03-23T01:17:56.113Z,8.42
2019-03-23T01:17:56.711Z,8.44
2019-03-23T01:17:57.312Z,8.45
2019-03-23T01:17:57.913Z,8.44
2019-03-23T01:18:51.370Z,8.45
2019-03-23T01:18:51.968Z,8.44
2019-03-23T01:18:52.569Z,8.44
2019-03-23T01:18:53.166Z,8.33
2019-03-23T01:18:53.767Z,8.45
2019-03-23T01:18:54.367Z,8.45
2019-03-23T01:18:54.967Z,8.47
2019-03-23T01:18:55.566Z,8.42
2019-03-23T01:19:50.044Z,8.35
2019-03-23T01:19:50.642Z,8.45
2019-03-23T01:19:51.241Z,8.39
2019-03-23T01:19:51.842Z,8.45
2019-03-23T01:19:52.442Z,8.39
2019-03-23T01:19:53.042Z,8.44
2019-03-23T01:19:53.641Z,8.37
2019-03-23T01:19:54.241Z,8.40
2019-03-23T01:20:49.826Z,8.47
2019-03-23T01:20:50.089Z,8.39
2019-03-23T01:20:50.141Z,8.45
2019-03-23T01:20:50.517Z,8.42
2019-03-23T01:20:51.119Z,8.45
2019-03-23T01:20:51.719Z,8.42
2019-03-23T01:20:52.316Z,8.39
2019-03-23T01:20:52.916Z,8.40
2019-03-23T01:21:47.397Z,8.40
2019-03-23T01:21:47.993Z,8.40
2019-03-23T01:21:48.592Z,8.42
2019-03-23T01:21:49.196Z,8.45
2019-03-23T01:21:49.793Z,8.39
2019-03-23T01:21:50.394Z,8.39
2019-03-23T01:21:50.994Z,8.44
2019-03-23T01:21:51.592Z,8.36
2019-03-23T01:22:45.051Z,8.36
2019-03-23T01:22:45.647Z,8.44
2019-03-23T01:22:46.246Z,8.47
2019-03-23T01:22:46.846Z,8.36
2019-03-23T01:22:47.446Z,8.42
2019-03-23T01:22:48.046Z,8.40
2019-03-23T01:22:48.645Z,8.39
2019-03-23T01:22:49.245Z,8.45
2019-03-23T01:23:43.727Z,8.47
2019-03-23T01:23:44.321Z,8.47
2019-03-23T01:23:44.920Z,8.45
2019-03-23T01:23:45.522Z,8.44
2019-03-23T01:23:46.122Z,8.47
2019-03-23T01:23:46.721Z,8.47
2019-03-23T01:23:47.321Z,8.44
2019-03-23T01:23:47.920Z,8.51
2019-03-23T01:24:42.399Z,8.51
2019-03-23T01:24:42.998Z,8.48
2019-03-23T01:24:43.601Z,8.45
2019-03-23T01:24:44.195Z,8.50
2019-03-23T01:24:44.795Z,8.45
2019-03-23T01:24:45.394Z,8.48
2019-03-23T01:24:45.996Z,8.48
2019-03-23T01:24:46.598Z,8.51
2019-03-23T01:25:40.080Z,8.44
2019-03-23T01:25:40.649Z,8.40
2019-03-23T01:25:41.248Z,8.40
2019-03-23T01:25:41.847Z,8.37
2019-03-23T01:25:42.449Z,8.39
2019-03-23T01:25:43.057Z,8.40
2019-03-23T01:25:43.647Z,8.48
2019-03-23T01:25:44.250Z,8.44
2019-03-23T01:26:37.704Z,8.37
2019-03-23T01:26:38.302Z,8.39
2019-03-23T01:26:38.901Z,8.40
2019-03-23T01:26:39.501Z,8.40
2019-03-23T01:26:40.101Z,8.42
2019-03-23T01:26:40.701Z,8.37
2019-03-23T01:26:41.300Z,8.33
2019-03-23T01:26:41.901Z,8.42
2019-03-23T01:27:35.356Z,8.40
2019-03-23T01:27:35.955Z,8.36
2019-03-23T01:27:36.553Z,8.44
2019-03-23T01:27:37.153Z,8.42
2019-03-23T01:27:37.754Z,8.40
2019-03-23T01:27:38.361Z,8.47
2019-03-23T01:27:38.954Z,8.39
2019-03-23T01:27:39.553Z,8.45
2019-03-23T01:28:33.007Z,8.42
2019-03-23T01:28:33.603Z,8.48
2019-03-23T01:28:34.205Z,8.42
2019-03-23T01:28:34.804Z,8.42
2019-03-23T01:28:35.403Z,8.40
2019-03-23T01:28:36.004Z,8.42
2019-03-23T01:28:36.603Z,8.45
2019-03-23T01:28:37.202Z,8.48
2019-03-23T01:29:31.684Z,8.42
2019-03-23T01:29:32.279Z,8.42
2019-03-23T01:29:32.879Z,8.45
2019-03-23T01:29:33.479Z,8.42
2019-03-23T01:29:34.080Z,8.47
2019-03-23T01:29:34.678Z,8.45
2019-03-23T01:29:35.276Z,8.54
2019-03-23T01:29:35.878Z,8.44
2019-03-23T01:30:29.335Z,8.51
2019-03-23T01:30:29.932Z,8.47
2019-03-23T01:30:30.531Z,8.54
2019-03-23T01:30:31.132Z,8.47
2019-03-23T01:30:31.736Z,8.54
2019-03-23T01:30:32.332Z,8.53
2019-03-23T01:30:32.933Z,8.48
2019-03-23T01:30:33.531Z,8.51
2019-03-23T01:31:27.015Z,8.48
2019-03-23T01:31:27.582Z,8.50
2019-03-23T01:31:28.185Z,8.47
2019-03-23T01:31:28.782Z,8.47
2019-03-23T01:31:29.383Z,8.54
2019-03-23T01:31:29.983Z,8.48
2019-03-23T01:31:30.583Z,8.48
2019-03-23T01:31:31.183Z,8.55
2019-03-23T01:32:25.661Z,8.45
2019-03-23T01:32:26.264Z,8.51
2019-03-23T01:32:26.858Z,8.42
2019-03-23T01:32:27.457Z,8.47
2019-03-23T01:32:28.059Z,8.45
2019-03-23T01:32:28.657Z,8.44
2019-03-23T01:32:29.258Z,8.47
2019-03-23T01:32:29.861Z,8.42
2019-03-23T01:33:23.343Z,8.47
2019-03-23T01:33:23.911Z,8.45
2019-03-23T01:33:24.510Z,8.44
2019-03-23T01:33:25.112Z,8.40
2019-03-23T01:33:25.711Z,8.47
2019-03-23T01:33:26.310Z,8.37
2019-03-23T01:33:26.910Z,8.40
2019-03-23T01:33:27.509Z,8.36
2019-03-23T01:34:21.990Z,8.37
2019-03-23T01:34:22.589Z,8.45
2019-03-23T01:34:23.189Z,8.37
2019-03-23T01:34:23.785Z,8.45
2019-03-23T01:34:24.385Z,8.42
2019-03-23T01:34:24.987Z,8.45
2019-03-23T01:34:25.584Z,8.47
2019-03-23T01:34:26.185Z,8.40
2019-03-23T01:35:20.674Z,8.47
2019-03-23T01:35:21.261Z,8.42
2019-03-23T01:35:21.861Z,8.47
2019-03-23T01:35:22.462Z,8.45
2019-03-23T01:35:23.061Z,8.44
2019-03-23T01:35:23.662Z,8.44
2019-03-23T01:35:24.260Z,8.44
2019-03-23T01:35:24.862Z,8.42
2019-03-23T01:36:18.345Z,8.42
2019-03-23T01:36:18.914Z,8.47
2019-03-23T01:36:19.516Z,8.54
2019-03-23T01:36:20.114Z,8.48
2019-03-23T01:36:20.713Z,8.51
2019-03-23T01:36:21.314Z,8.53
2019-03-23T01:36:21.913Z,8.48
2019-03-23T01:36:22.513Z,8.48
2019-03-23T01:37:16.993Z,8.47
2019-03-23T01:37:17.589Z,8.53
2019-03-23T01:37:18.189Z,8.50
2019-03-23T01:37:18.787Z,8.45
2019-03-23T01:37:19.388Z,8.48
2019-03-23T01:37:19.990Z,8.48
2019-03-23T01:37:20.593Z,8.48
2019-03-23T01:37:21.187Z,8.48
2019-03-23T01:38:14.645Z,8.47
2019-03-23T01:38:15.244Z,8.45
2019-03-23T01:38:15.841Z,8.45
2019-03-23T01:38:16.442Z,8.51
2019-03-23T01:38:17.041Z,8.53
2019-03-23T01:38:17.641Z,8.53
2019-03-23T01:38:18.241Z,8.55
2019-03-23T01:38:18.841Z,8.47
2019-03-23T01:39:12.296Z,8.53
2019-03-23T01:39:12.892Z,8.53
2019-03-23T01:39:13.493Z,8.54
2019-03-23T01:39:14.093Z,8.45
2019-03-23T01:39:14.695Z,8.57
2019-03-23T01:39:15.294Z,8.54
2019-03-23T01:39:15.893Z,8.51
2019-03-23T01:39:16.492Z,8.45
2019-03-23T01:40:09.949Z,8.51
2019-03-23T01:40:10.546Z,8.60
2019-03-23T01:40:11.145Z,8.58
2019-03-23T01:40:11.744Z,8.63
2019-03-23T01:40:12.344Z,8.60
2019-03-23T01:40:12.948Z,8.57
2019-03-23T01:40:13.543Z,8.57
2019-03-23T01:40:14.142Z,8.57
2019-03-23T01:41:08.653Z,8.60
2019-03-23T01:41:09.221Z,8.55
2019-03-23T01:41:09.819Z,8.62
2019-03-23T01:41:10.424Z,8.62
2019-03-23T01:41:11.021Z,8.63
2019-03-23T01:41:11.620Z,8.58
2019-03-23T01:41:12.219Z,8.54
2019-03-23T01:41:12.866Z,8.60
2019-03-23T01:42:06.275Z,8.58
2019-03-23T01:42:06.873Z,8.62
2019-03-23T01:42:07.474Z,8.57
2019-03-23T01:42:08.073Z,8.57
2019-03-23T01:42:08.673Z,8.55
2019-03-23T01:42:09.273Z,8.63
2019-03-23T01:42:09.872Z,8.63
2019-03-23T01:42:10.471Z,8.58
2019-03-23T01:43:04.954Z,8.50
2019-03-23T01:43:05.548Z,8.62
2019-03-23T01:43:06.149Z,8.63
2019-03-23T01:43:06.746Z,8.58
2019-03-23T01:43:07.347Z,8.55
2019-03-23T01:43:07.950Z,8.55
2019-03-23T01:43:08.546Z,8.58
2019-03-23T01:43:09.151Z,8.62
2019-03-23T01:44:02.605Z,8.62
2019-03-23T01:44:03.201Z,8.55
2019-03-23T01:44:03.799Z,8.58
2019-03-23T01:44:04.401Z,8.58
2019-03-23T01:44:05.007Z,8.60
2019-03-23T01:44:05.600Z,8.55
2019-03-23T01:44:06.200Z,8.55
2019-03-23T01:44:06.800Z,8.57
2019-03-23T01:45:01.283Z,8.63
2019-03-23T01:45:01.877Z,8.57
2019-03-23T01:45:02.475Z,8.60
2019-03-23T01:45:03.074Z,8.57
2019-03-23T01:45:03.673Z,8.60
2019-03-23T01:45:04.274Z,8.60
2019-03-23T01:45:04.873Z,8.53
2019-03-23T01:45:05.472Z,8.57
2019-03-23T01:45:59.978Z,8.65
2019-03-23T01:46:00.550Z,8.62
2019-03-23T01:46:01.150Z,8.58
2019-03-23T01:46:01.749Z,8.58
2019-03-23T01:46:02.351Z,8.62
2019-03-23T01:46:02.950Z,8.62
2019-03-23T01:46:03.549Z,8.60
2019-03-23T01:46:04.150Z,8.62
2019-03-23T01:46:58.631Z,8.65
2019-03-23T01:46:59.230Z,8.58
2019-03-23T01:46:59.826Z,8.54
2019-03-23T01:47:00.429Z,8.62
2019-03-23T01:47:01.024Z,8.58
2019-03-23T01:47:01.625Z,8.57
2019-03-23T01:47:02.226Z,8.57
2019-03-23T01:47:02.824Z,8.62
2019-03-23T01:47:56.284Z,8.54
2019-03-23T01:47:56.880Z,8.57
2019-03-23T01:47:57.479Z,8.58
2019-03-23T01:47:58.077Z,8.55
2019-03-23T01:47:58.679Z,8.62
2019-03-23T01:47:59.281Z,8.65
2019-03-23T01:47:59.878Z,8.66
2019-03-23T01:48:00.478Z,8.55
2019-03-23T01:48:53.934Z,8.71
2019-03-23T01:48:54.532Z,8.71
2019-03-23T01:48:55.130Z,8.71
2019-03-23T01:48:55.731Z,8.65
2019-03-23T01:48:56.330Z,8.66
2019-03-23T01:48:56.932Z,8.66
2019-03-23T01:48:57.530Z,8.63
2019-03-23T01:48:58.132Z,8.65
2019-03-23T01:49:52.610Z,8.66
2019-03-23T01:49:53.206Z,8.65
2019-03-23T01:49:53.805Z,8.66
2019-03-23T01:49:54.412Z,8.71
2019-03-23T01:49:55.005Z,8.63
2019-03-23T01:49:55.606Z,8.65
2019-03-23T01:49:56.205Z,8.65
2019-03-23T01:49:56.804Z,8.72
2019-03-23T01:50:50.288Z,8.65
2019-03-23T01:50:50.860Z,8.60
2019-03-23T01:50:51.459Z,8.69
2019-03-23T01:50:52.058Z,8.73
2019-03-23T01:50:52.663Z,8.75
2019-03-23T01:50:53.778Z,8.69
2019-03-23T01:50:53.855Z,8.55
2019-03-23T01:50:54.455Z,8.71
2019-03-23T01:51:47.913Z,8.71
2019-03-23T01:51:48.510Z,8.69
2019-03-23T01:51:49.109Z,8.71
2019-03-23T01:51:49.710Z,8.69
2019-03-23T01:51:50.310Z,8.79
2019-03-23T01:51:50.911Z,8.69
2019-03-23T01:51:51.509Z,8.73
2019-03-23T01:51:52.110Z,8.73
2019-03-23T01:52:46.588Z,8.75
2019-03-23T01:52:47.185Z,8.72
2019-03-23T01:52:47.784Z,8.71
2019-03-23T01:52:48.383Z,8.66
2019-03-23T01:52:48.984Z,8.71
2019-03-23T01:52:49.582Z,8.78
2019-03-23T01:52:50.184Z,8.75
2019-03-23T01:52:50.782Z,8.63
2019-03-23T01:53:45.263Z,8.76
2019-03-23T01:53:45.860Z,8.63
2019-03-23T01:53:46.459Z,8.69
2019-03-23T01:53:47.063Z,8.73
2019-03-23T01:53:47.661Z,8.69
2019-03-23T01:53:48.259Z,8.76
2019-03-23T01:53:48.859Z,8.71
2019-03-23T01:53:49.460Z,8.73
2019-03-23T01:54:42.917Z,8.58
2019-03-23T01:54:43.518Z,8.73
2019-03-23T01:54:44.112Z,8.69
2019-03-23T01:54:44.713Z,8.68
2019-03-23T01:54:45.311Z,8.75
2019-03-23T01:54:45.919Z,8.78
2019-03-23T01:54:46.512Z,8.76
2019-03-23T01:54:47.111Z,8.78
2019-03-23T01:55:41.627Z,8.68
2019-03-23T01:55:42.189Z,8.75
2019-03-23T01:55:42.787Z,8.78
2019-03-23T01:55:43.387Z,8.69
2019-03-23T01:55:43.988Z,8.66
2019-03-23T01:55:44.592Z,8.72
2019-03-23T01:55:45.189Z,8.71
2019-03-23T01:55:45.789Z,8.65
2019-03-23T01:56:39.245Z,8.73
2019-03-23T01:56:39.843Z,8.65
2019-03-23T01:56:40.439Z,8.68
2019-03-23T01:56:41.040Z,8.66
2019-03-23T01:56:41.640Z,8.73
2019-03-23T01:56:42.240Z,8.63
2019-03-23T01:56:42.840Z,8.69
2019-03-23T01:56:43.439Z,8.73
2019-03-23T01:57:36.894Z,8.68
2019-03-23T01:57:37.496Z,8.73
2019-03-23T01:57:38.091Z,8.71
2019-03-23T01:57:38.692Z,8.69
2019-03-23T01:57:39.296Z,8.75
2019-03-23T01:57:39.890Z,8.69
2019-03-23T01:57:40.492Z,8.69
2019-03-23T01:57:41.092Z,8.68
2019-03-23T01:58:35.574Z,8.68
2019-03-23T01:58:36.168Z,8.68
2019-03-23T01:58:36.770Z,8.72
2019-03-23T01:58:37.366Z,8.66
2019-03-23T01:58:37.965Z,8.66
2019-03-23T01:58:38.566Z,8.66
2019-03-23T01:58:39.165Z,8.73
2019-03-23T01:58:39.769Z,8.66
2019-03-23T01:59:33.222Z,8.73
2019-03-23T01:59:33.821Z,8.65
2019-03-23T01:59:34.419Z,8.78
2019-03-23T01:59:35.018Z,8.79
2019-03-23T01:59:35.618Z,8.66
2019-03-23T01:59:36.219Z,8.68
2019-03-23T01:59:36.819Z,8.72
2019-03-23T01:59:37.420Z,8.69
2019-03-23T02:00:30.878Z,8.72
2019-03-23T02:00:31.471Z,8.69
2019-03-23T02:00:32.070Z,8.76
2019-03-23T02:00:32.670Z,8.69
2019-03-23T02:00:33.307Z,8.69
2019-03-23T02:00:33.872Z,8.76
2019-03-23T02:00:34.471Z,8.72
2019-03-23T02:00:35.081Z,8.69
2019-03-23T02:01:29.574Z,8.71
2019-03-23T02:01:30.147Z,8.72
2019-03-23T02:01:30.745Z,8.76
2019-03-23T02:01:31.346Z,8.75
2019-03-23T02:01:31.951Z,8.76
2019-03-23T02:01:32.547Z,8.68
2019-03-23T02:01:33.146Z,8.71
2019-03-23T02:01:33.744Z,8.71
2019-03-23T02:02:27.202Z,8.68
2019-03-23T02:02:27.799Z,8.71
2019-03-23T02:02:28.399Z,8.69
2019-03-23T02:02:28.999Z,8.71
2019-03-23T02:02:29.599Z,8.69
2019-03-23T02:02:30.199Z,8.68
2019-03-23T02:02:30.797Z,8.79
2019-03-23T02:02:31.397Z,8.76
2019-03-23T02:03:24.859Z,8.63
2019-03-23T02:03:25.450Z,8.68
2019-03-23T02:03:26.052Z,8.71
2019-03-23T02:03:26.656Z,8.72
2019-03-23T02:03:27.249Z,8.72
2019-03-23T02:03:27.850Z,8.71
2019-03-23T02:03:28.449Z,8.78